Storm Events Database

Event Details

Event Hail
Magnitude 1.00 in.
State OKLAHOMA
County/Area WASHITA
WFO OUN
Report Source Emergency Manager
NCDC Data Source CSV
Begin Date 2008-03-02 16:14:00.0 CST-6
Begin Location 0N CORDELL
Begin Lat/Lon 35.3/-98.98
End Date 2008-03-02 16:14:00.0 CST-6
Deaths Direct/Indirect 0/0 (fatality details below, when available...)
Injuries Direct/Indirect 0/0
Property Damage 0.00K
Crop Damage 0.00K
Episode Narrative An upper level storm system moved from the northern and central Rocky mountains toward the southern plains early on the 2nd. Ahead of this system, a cold front moved toward northern Oklahoma. Moderate moisture increased across much of Oklahoma and temperatures were able to warm into the upper 60s and lower 70s. Several supercell thunderstorms developed along a dry line over western Oklahoma, with a line of thunderstorms also developing along the front. High winds, large hail, and very heavy rainfall accompanied the thunderstorms, with one tornado reported in Blaine county. The line of thunderstorms merged with the other thunderstorms and pushed into eastern and southern Oklahoma. Monetary damages were estimated.
Event Narrative


     ‚Äč



All events for this episode:

Location County/Zone St. Date Time T.Z. Type Mag Dth Inj PrD CrD
Totals: 0 0 162.00K 0.00K
LAVERNE HARPER CO. OK 03/02/2008 14:15 CST-6 Hail 0.88 in. 0 0 0.00K 0.00K
BUFFALO HARPER CO. OK 03/02/2008 14:31 CST-6 Hail 1.25 in. 0 0 0.00K 0.00K
BUFFALO HARPER CO. OK 03/02/2008 14:40 CST-6 Hail 4.25 in. 0 0 0.00K 0.00K
FREEDOM WOODS CO. OK 03/02/2008 15:13 CST-6 Hail 1.00 in. 0 0 0.00K 0.00K
CAMP HOUSTON WOODS CO. OK 03/02/2008 15:41 CST-6 Hail 1.00 in. 0 0 0.00K 0.00K
TALOGA DEWEY CO. OK 03/02/2008 16:00 CST-6 Hail 2.75 in. 0 0 0.00K 0.00K
SEILING DEWEY CO. OK 03/02/2008 16:05 CST-6 Hail 1.00 in. 0 0 0.00K 0.00K
CORDELL WASHITA CO. OK 03/02/2008 16:14 CST-6 Hail 1.00 in. 0 0 0.00K 0.00K
DEWEY (ZONE) DEWEY (ZONE) OK 03/02/2008 16:30 CST-6 High Wind 52 kts. EG 0 0 2.00K 0.00K
DACOMA WOODS CO. OK 03/02/2008 16:35 CST-6 Thunderstorm Wind 56 kts. EG 0 0 5.00K 0.00K
CANTON BLAINE CO. OK 03/02/2008 16:45 CST-6 Thunderstorm Wind 61 kts. EG 0 0 0.00K 0.00K
CANTON BLAINE CO. OK 03/02/2008 16:45 CST-6 Hail 0.88 in. 0 0 0.00K 0.00K
ROOSEVELT KIOWA CO. OK 03/02/2008 16:45 CST-6 Hail 0.88 in. 0 0 0.00K 0.00K
EAGLE CITY BLAINE CO. OK 03/02/2008 16:46 CST-6 Tornado EF0 0 0 0.00K 0.00K
MANCHESTER GRANT CO. OK 03/02/2008 17:30 CST-6 Thunderstorm Wind 52 kts. EG 0 0 40.00K 0.00K
SNYDER KIOWA CO. OK 03/02/2008 17:47 CST-6 Hail 1.00 in. 0 0 0.00K 0.00K
(END)VANCE AFB ENID GARFIELD CO. OK 03/02/2008 17:50 CST-6 Thunderstorm Wind 57 kts. MG 0 0 0.00K 0.00K
FT COBB CADDO CO. OK 03/02/2008 17:50 CST-6 Thunderstorm Wind 52 kts. EG 0 0 0.00K 0.00K
AMES MAJOR CO. OK 03/02/2008 17:55 CST-6 Thunderstorm Wind 52 kts. EG 0 0 25.00K 0.00K
AMES MAJOR CO. OK 03/02/2008 17:55 CST-6 Hail 0.88 in. 0 0 0.00K 0.00K
DRUMMOND GARFIELD CO. OK 03/02/2008 18:00 CST-6 Thunderstorm Wind 52 kts. EG 0 0 0.00K 0.00K
INDIAHOMA COMANCHE CO. OK 03/02/2008 18:04 CST-6 Hail 1.00 in. 0 0 0.00K 0.00K
BINGER CADDO CO. OK 03/02/2008 18:05 CST-6 Thunderstorm Wind 56 kts. EG 0 0 35.00K 0.00K
HUNTER GARFIELD CO. OK 03/02/2008 18:15 CST-6 Hail 0.75 in. 0 0 0.00K 0.00K
COOPERTON KIOWA CO. OK 03/02/2008 18:33 CST-6 Hail 0.75 in. 0 0 0.00K 0.00K
COVINGTON GARFIELD CO. OK 03/02/2008 18:45 CST-6 Thunderstorm Wind 56 kts. EG 0 0 0.00K 0.00K
ENID GARFIELD CO. OK 03/02/2008 18:45 CST-6 Thunderstorm Wind 56 kts. EG 0 0 25.00K 0.00K
NEWKIRK KAY CO. OK 03/02/2008 18:45 CST-6 Thunderstorm Wind 52 kts. EG 0 0 0.00K 0.00K
ANADARKO CADDO CO. OK 03/02/2008 19:00 CST-6 Thunderstorm Wind 52 kts. EG 0 0 0.00K 0.00K
ANADARKO CADDO CO. OK 03/02/2008 19:10 CST-6 Hail 0.75 in. 0 0 0.00K 0.00K
PIEDMONT CANADIAN CO. OK 03/02/2008 19:15 CST-6 Thunderstorm Wind 61 kts. EG 0 0 30.00K 0.00K
UNION CITY CANADIAN CO. OK 03/02/2008 19:19 CST-6 Hail 0.75 in. 0 0 0.00K 0.00K
TILLMAN (ZONE) TILLMAN (ZONE) OK 03/02/2008 19:31 CST-6 High Wind 50 kts. MG 0 0 0.00K 0.00K
FLETCHER COMANCHE CO. OK 03/02/2008 20:02 CST-6 Thunderstorm Wind 52 kts. EG 0 0 0.00K 0.00K
FT COBB CADDO CO. OK 03/02/2008 20:02 CST-6 Thunderstorm Wind 62 kts. MG 0 0 0.00K 0.00K
PERKINS PAYNE CO. OK 03/02/2008 20:44 CST-6 Hail 0.75 in. 0 0 0.00K 0.00K
COMANCHE (ZONE) COMANCHE (ZONE) OK 03/02/2008 21:00 CST-6 High Wind 50 kts. MG 0 0 0.00K 0.00K
RANDLETT COTTON CO. OK 03/02/2008 21:05 CST-6 Hail 0.75 in. 0 0 0.00K 0.00K
COMANCHE (ZONE) COMANCHE (ZONE) OK 03/02/2008 21:10 CST-6 High Wind 52 kts. MG 0 0 0.00K 0.00K
NORMAN CLEVELAND CO. OK 03/02/2008 21:15 CST-6 Hail 0.88 in. 0 0 0.00K 0.00K
RINGLING JEFFERSON CO. OK 03/02/2008 22:20 CST-6 Thunderstorm Wind 51 kts. EG 0 0 0.00K 0.00K
Totals: 0 0 162.00K 0.00K